Detalii statie GENERAL AGRO [00001CEA]

Toti senzorii

Date Temperatura solului [C]Precipitatii [mm]Voltaj baterie [mV]HC Air temperature [C]HC Relative humidity [%]Punctul de roua [C]
medieminmaxsumaultimamedieminmaxmediemediemin
2019-02-21 00:00:00 4.2 4.2 4.4 0 6678 1.92 0.62 3.07 0 0 0
2019-02-21 00:30:00 4.1 3.8 4.2 0 6668 1.68 0.51 3.49 0 0 0
2019-02-21 01:00:00 3.9 3.7 4.1 0 6668 -0.32 -0.91 0.31 0 0 0
2019-02-21 01:30:00 3.7 3.7 3.9 0 6668 0.24 -0.97 1.27 0 0 0
2019-02-21 02:00:00 3.7 3.6 3.8 0 6668 0.16 -1.62 2 0 0 0
2019-02-21 02:30:00 3.5 3.5 3.6 0 6668 -1.35 -2.08 -0.7 0 0 0
2019-02-21 03:00:00 3.4 3.3 3.5 0 6668 -1.29 -2.6 -0.7 0 0 0
2019-02-21 03:30:00 3.3 3.2 3.4 0 6660 -1.96 -2.73 -1.04 0 0 0
2019-02-21 04:00:00 3.1 3 3.2 0 6660 -1.88 -2.41 -1.41 0 0 0
2019-02-21 04:30:00 3 3 3.1 0 6660 -2.6 -2.99 -2.11 0 0 0
2019-02-21 05:00:00 2.9 2.8 3 0 6660 -1.94 -2.43 -1.12 0 0 0
2019-02-21 05:30:00 2.8 2.8 2.9 0 6660 -1.45 -2.14 -0.7 0 0 0
2019-02-21 06:00:00 2.8 2.7 2.9 0 6660 -3.02 -3.7 -2.35 0 0 0
2019-02-21 06:30:00 2.7 2.7 2.8 0 6650 -3.22 -3.56 -2.9 0 0 0
2019-02-21 07:00:00 2.6 2.6 2.7 0 6660 -2.74 -3.11 -2.57 0 0 0
2019-02-21 07:30:00 2.5 2.5 2.5 0 6660 -2.84 -3.18 -2.52 0 0 0
2019-02-21 08:00:00 2.4 2.3 2.6 0 6678 -2.01 -2.74 -1.03 0 0 0
2019-02-21 08:30:00 2.5 2.5 2.5 0 6668 0.2 -0.44 0.72 0 0 0
2019-02-21 09:00:00 2.5 2.5 2.6 0 6688 1.9 1.2 2.58 0 0 0
2019-02-21 09:30:00 2.6 2.6 2.8 0 6698 3.41 2.78 4.46 0 0 0
2019-02-21 10:00:00 2.8 2.7 2.9 0 6748 5.84 4.75 6.95 0 0 0
2019-02-21 10:30:00 3 2.9 3.1 0 6826 7.53 6.96 8.42 8.76 -3.3 0
2019-02-21 11:00:00 3.2 3.2 3.4 0 6834 9.8 8.82 10.84 47.84 -1 -4.7
2019-02-21 11:30:00 3.5 3.4 3.7 0 6854 11.04 10.89 11.63 31.95 -5.2 -6.3
2019-02-21 12:00:00 3.7 3.7 3.8 0 6854 11.38 10.91 11.87 32.98 -4.4 -5
2019-02-21 12:30:00 4.1 4 4.3 0 6844 12.03 11.6 12.53 29.78 -5.3 -6
2019-02-21 13:00:00 4.4 4.2 4.6 0 6806 11.95 11.63 12.17 27.71 -6.2 -6.6
2019-02-21 13:30:00 4.6 4.6 4.8 0 6826 12.12 11.82 12.56 26.75 -6.5 -6.7
2019-02-21 14:00:00 4.8 4.8 5 0 6806 12.6 12.41 12.86 26.51 -6.2 -6.4
2019-02-21 14:30:00 5 5 5.2 0 6776 12.27 12.02 12.59 27.25 -6.2 -6.5
2019-02-21 15:00:00 5.2 5 5.4 0 6766 12.69 12.07 13.07 27.45 -5.6 -6.3
2019-02-21 15:30:00 5.3 5.3 5.4 0 6756 12.32 12.1 12.52 27.25 -6.1 -6.5
2019-02-21 16:00:00 5.4 5.3 5.6 0 6748 11.75 11.27 12.36 28.93 -5.8 -6.2
2019-02-21 16:30:00 5.5 5.4 5.6 0 6738 11.14 11.03 11.25 30.39 -5.7 -6.1
2019-02-21 17:00:00 5.4 5.3 5.6 0 6728 10.75 10.55 10.98 31.95 -5.3 -5.5
2019-02-21 17:30:00 5.3 5.3 5.6 0 6728 9.82 9.29 10.28 34.91 -5 -5.2
2019-02-21 18:00:00 5.3 5.2 5.5 0 6718 8.15 7.3 9.02 38.91 -5 -5.3
2019-02-21 18:30:00 5.2 5.2 5.3 0 6718 5.96 5.42 6.68 42.79 -5.8 -6.1
2019-02-21 19:00:00 5 5 5.2 0 6718 4.71 4.25 5.41 45.49 -6.1 -6.6
2019-02-21 19:30:00 4.9 4.9 5 0 6698 4.14 3.91 4.28 47.71 -6 -6.3
2019-02-21 20:00:00 4.7 4.6 5 0 6698 4.19 3.86 4.39 48.73 -5.7 -6.1
2019-02-21 20:30:00 4.5 4.5 4.7 0 6698 2.8 1.93 4.21 50.61 -6.4 -6.8
2019-02-21 21:00:00 4.5 4.5 4.6 0 6698 1.21 0.59 2.08 53.59 -7.1 -7.6
2019-02-21 21:30:00 4.3 4.3 4.4 0 6698 1.72 0.78 2.4 52.55 -7 -7.7
2019-02-21 22:00:00 4.2 4.2 4.2 0 6688 1.83 1.41 2.37 51.95 -7 -7.3
2019-02-21 22:30:00 4 4 4.1 0 6688 -0.37 -0.63 0.22 58.06 -7.5 -8.1
2019-02-21 23:00:00 3.9 3.7 4.1 0 6688 -0.32 -0.45 -0.03 57.5 -7.6 -7.8
2019-02-21 23:30:00 3.7 3.6 3.9 0 6678 -0.75 -1.4 0.16 57.97 -8 -8.3